sensor_id;sensor_type;location;lat;lon;timestamp;P1;durP1;ratioP1;P2;durP2;ratioP2
6852;SDS011;3465;42.144;24.722;2024-03-02T00:02:11;40.03;;;16.90;;
6852;SDS011;3465;42.144;24.722;2024-03-02T00:04:36;41.72;;;16.48;;
6852;SDS011;3465;42.144;24.722;2024-03-02T00:07:02;38.00;;;15.63;;
6852;SDS011;3465;42.144;24.722;2024-03-02T00:09:29;36.10;;;14.95;;
6852;SDS011;3465;42.144;24.722;2024-03-02T00:11:54;31.20;;;14.50;;
6852;SDS011;3465;42.144;24.722;2024-03-02T00:14:20;36.38;;;17.27;;
6852;SDS011;3465;42.144;24.722;2024-03-02T00:16:46;31.33;;;16.08;;
6852;SDS011;3465;42.144;24.722;2024-03-02T00:19:11;36.42;;;17.00;;
6852;SDS011;3465;42.144;24.722;2024-03-02T00:21:37;36.05;;;15.68;;
6852;SDS011;3465;42.144;24.722;2024-03-02T00:24:36;40.65;;;16.73;;
6852;SDS011;3465;42.144;24.722;2024-03-02T00:27:00;36.85;;;17.05;;
6852;SDS011;3465;42.144;24.722;2024-03-02T00:29:29;37.67;;;16.33;;
6852;SDS011;3465;42.144;24.722;2024-03-02T00:31:54;41.47;;;17.55;;
6852;SDS011;3465;42.144;24.722;2024-03-02T00:34:20;40.50;;;16.73;;
6852;SDS011;3465;42.144;24.722;2024-03-02T00:36:48;45.63;;;17.48;;
6852;SDS011;3465;42.144;24.722;2024-03-02T00:39:14;43.30;;;17.20;;
6852;SDS011;3465;42.144;24.722;2024-03-02T00:41:42;36.97;;;16.10;;
6852;SDS011;3465;42.144;24.722;2024-03-02T00:44:09;41.72;;;17.35;;
6852;SDS011;3465;42.144;24.722;2024-03-02T00:46:38;41.35;;;17.00;;
6852;SDS011;3465;42.144;24.722;2024-03-02T00:49:05;37.92;;;16.67;;
6852;SDS011;3465;42.144;24.722;2024-03-02T00:51:44;40.60;;;18.05;;
6852;SDS011;3465;42.144;24.722;2024-03-02T00:54:13;41.08;;;17.45;;
6852;SDS011;3465;42.144;24.722;2024-03-02T00:56:39;42.53;;;16.88;;
6852;SDS011;3465;42.144;24.722;2024-03-02T00:59:06;42.83;;;16.48;;
6852;SDS011;3465;42.144;24.722;2024-03-02T01:01:33;46.63;;;17.40;;
6852;SDS011;3465;42.144;24.722;2024-03-02T01:03:59;50.78;;;19.38;;
6852;SDS011;3465;42.144;24.722;2024-03-02T01:06:25;39.92;;;17.30;;
6852;SDS011;3465;42.144;24.722;2024-03-02T01:09:09;45.85;;;18.15;;
6852;SDS011;3465;42.144;24.722;2024-03-02T01:11:34;43.75;;;19.80;;
6852;SDS011;3465;42.144;24.722;2024-03-02T01:14:00;40.47;;;17.00;;
6852;SDS011;3465;42.144;24.722;2024-03-02T01:16:25;47.83;;;18.90;;
6852;SDS011;3465;42.144;24.722;2024-03-02T01:18:51;48.15;;;19.63;;
6852;SDS011;3465;42.144;24.722;2024-03-02T01:21:17;50.20;;;19.63;;
6852;SDS011;3465;42.144;24.722;2024-03-02T01:23:42;53.80;;;19.45;;
6852;SDS011;3465;42.144;24.722;2024-03-02T01:26:08;53.40;;;19.63;;
6852;SDS011;3465;42.144;24.722;2024-03-02T01:28:34;49.70;;;19.58;;
6852;SDS011;3465;42.144;24.722;2024-03-02T01:30:59;53.22;;;19.23;;
6852;SDS011;3465;42.144;24.722;2024-03-02T01:33:26;60.35;;;20.70;;
6852;SDS011;3465;42.144;24.722;2024-03-02T01:35:51;54.40;;;21.48;;
6852;SDS011;3465;42.144;24.722;2024-03-02T01:38:17;57.08;;;20.98;;
6852;SDS011;3465;42.144;24.722;2024-03-02T01:40:42;56.20;;;20.13;;
6852;SDS011;3465;42.144;24.722;2024-03-02T01:43:09;56.10;;;20.27;;
6852;SDS011;3465;42.144;24.722;2024-03-02T01:45:35;61.50;;;20.77;;
6852;SDS011;3465;42.144;24.722;2024-03-02T01:48:02;57.88;;;19.55;;
6852;SDS011;3465;42.144;24.722;2024-03-02T01:50:28;51.83;;;19.75;;
6852;SDS011;3465;42.144;24.722;2024-03-02T01:52:56;71.60;;;23.27;;
6852;SDS011;3465;42.144;24.722;2024-03-02T01:55:22;58.65;;;22.85;;
6852;SDS011;3465;42.144;24.722;2024-03-02T01:57:50;74.95;;;24.27;;
6852;SDS011;3465;42.144;24.722;2024-03-02T02:00:17;64.03;;;22.52;;
6852;SDS011;3465;42.144;24.722;2024-03-02T02:02:43;66.90;;;22.95;;
6852;SDS011;3465;42.144;24.722;2024-03-02T02:05:09;57.58;;;20.17;;
6852;SDS011;3465;42.144;24.722;2024-03-02T02:07:35;66.60;;;22.42;;
6852;SDS011;3465;42.144;24.722;2024-03-02T02:10:01;71.53;;;22.00;;
6852;SDS011;3465;42.144;24.722;2024-03-02T02:12:27;70.43;;;21.95;;
6852;SDS011;3465;42.144;24.722;2024-03-02T02:14:53;47.85;;;16.45;;
6852;SDS011;3465;42.144;24.722;2024-03-02T02:17:18;62.53;;;21.33;;
6852;SDS011;3465;42.144;24.722;2024-03-02T02:19:44;60.88;;;20.00;;
6852;SDS011;3465;42.144;24.722;2024-03-02T02:22:10;49.38;;;18.38;;
6852;SDS011;3465;42.144;24.722;2024-03-02T02:24:35;56.85;;;19.05;;
6852;SDS011;3465;42.144;24.722;2024-03-02T02:27:01;45.58;;;17.10;;
6852;SDS011;3465;42.144;24.722;2024-03-02T02:29:27;49.35;;;18.50;;
6852;SDS011;3465;42.144;24.722;2024-03-02T02:31:53;47.42;;;18.15;;
6852;SDS011;3465;42.144;24.722;2024-03-02T02:34:19;46.88;;;16.77;;
6852;SDS011;3465;42.144;24.722;2024-03-02T02:36:44;41.92;;;18.00;;
6852;SDS011;3465;42.144;24.722;2024-03-02T02:39:11;38.95;;;17.85;;
6852;SDS011;3465;42.144;24.722;2024-03-02T02:41:38;46.95;;;17.48;;
6852;SDS011;3465;42.144;24.722;2024-03-02T02:44:04;44.40;;;18.17;;
6852;SDS011;3465;42.144;24.722;2024-03-02T02:46:30;43.80;;;17.80;;
6852;SDS011;3465;42.144;24.722;2024-03-02T02:48:55;38.78;;;17.95;;
6852;SDS011;3465;42.144;24.722;2024-03-02T02:51:21;37.38;;;17.15;;
6852;SDS011;3465;42.144;24.722;2024-03-02T02:53:46;43.88;;;18.08;;
6852;SDS011;3465;42.144;24.722;2024-03-02T02:56:12;43.17;;;14.90;;
6852;SDS011;3465;42.144;24.722;2024-03-02T02:58:39;45.95;;;17.17;;
6852;SDS011;3465;42.144;24.722;2024-03-02T03:01:06;38.97;;;14.40;;
6852;SDS011;3465;42.144;24.722;2024-03-02T03:03:31;43.88;;;16.65;;
6852;SDS011;3465;42.144;24.722;2024-03-02T03:05:56;39.08;;;17.23;;
6852;SDS011;3465;42.144;24.722;2024-03-02T03:08:22;49.90;;;17.08;;
6852;SDS011;3465;42.144;24.722;2024-03-02T03:10:48;43.80;;;19.23;;
6852;SDS011;3465;42.144;24.722;2024-03-02T03:13:14;34.13;;;13.80;;
6852;SDS011;3465;42.144;24.722;2024-03-02T03:15:40;44.70;;;16.80;;
6852;SDS011;3465;42.144;24.722;2024-03-02T03:18:05;47.20;;;17.05;;
6852;SDS011;3465;42.144;24.722;2024-03-02T03:20:32;49.33;;;18.13;;
6852;SDS011;3465;42.144;24.722;2024-03-02T03:22:59;49.15;;;19.25;;
6852;SDS011;3465;42.144;24.722;2024-03-02T03:25:25;35.33;;;15.77;;
6852;SDS011;3465;42.144;24.722;2024-03-02T03:27:52;40.85;;;17.17;;
6852;SDS011;3465;42.144;24.722;2024-03-02T03:30:18;36.25;;;16.30;;
6852;SDS011;3465;42.144;24.722;2024-03-02T03:32:43;40.55;;;17.52;;
6852;SDS011;3465;42.144;24.722;2024-03-02T03:35:09;44.72;;;16.90;;
6852;SDS011;3465;42.144;24.722;2024-03-02T03:37:35;37.58;;;16.02;;
6852;SDS011;3465;42.144;24.722;2024-03-02T03:40:01;40.25;;;16.98;;
6852;SDS011;3465;42.144;24.722;2024-03-02T03:42:38;37.85;;;16.58;;
6852;SDS011;3465;42.144;24.722;2024-03-02T03:45:04;42.17;;;16.67;;
6852;SDS011;3465;42.144;24.722;2024-03-02T03:47:33;37.08;;;16.52;;
6852;SDS011;3465;42.144;24.722;2024-03-02T03:49:58;32.67;;;15.23;;
6852;SDS011;3465;42.144;24.722;2024-03-02T03:52:24;40.35;;;17.42;;
6852;SDS011;3465;42.144;24.722;2024-03-02T03:54:49;37.03;;;17.05;;
6852;SDS011;3465;42.144;24.722;2024-03-02T03:57:15;37.67;;;16.83;;
6852;SDS011;3465;42.144;24.722;2024-03-02T03:59:41;41.58;;;16.95;;
6852;SDS011;3465;42.144;24.722;2024-03-02T04:02:07;38.42;;;17.10;;
6852;SDS011;3465;42.144;24.722;2024-03-02T04:04:33;37.35;;;16.05;;
6852;SDS011;3465;42.144;24.722;2024-03-02T04:06:58;36.72;;;16.48;;
6852;SDS011;3465;42.144;24.722;2024-03-02T04:09:24;39.45;;;18.05;;
6852;SDS011;3465;42.144;24.722;2024-03-02T04:11:50;36.97;;;15.05;;
6852;SDS011;3465;42.144;24.722;2024-03-02T04:14:16;41.17;;;17.33;;
6852;SDS011;3465;42.144;24.722;2024-03-02T04:16:42;39.78;;;16.35;;
6852;SDS011;3465;42.144;24.722;2024-03-02T04:19:07;36.88;;;17.67;;
6852;SDS011;3465;42.144;24.722;2024-03-02T04:21:33;38.05;;;17.20;;
6852;SDS011;3465;42.144;24.722;2024-03-02T04:23:58;45.03;;;15.98;;
6852;SDS011;3465;42.144;24.722;2024-03-02T04:26:24;40.72;;;16.33;;
6852;SDS011;3465;42.144;24.722;2024-03-02T04:28:51;37.72;;;16.35;;
6852;SDS011;3465;42.144;24.722;2024-03-02T04:31:17;40.30;;;16.67;;
6852;SDS011;3465;42.144;24.722;2024-03-02T04:33:42;35.45;;;15.43;;
6852;SDS011;3465;42.144;24.722;2024-03-02T04:36:08;37.75;;;16.75;;
6852;SDS011;3465;42.144;24.722;2024-03-02T04:38:37;34.90;;;14.60;;
6852;SDS011;3465;42.144;24.722;2024-03-02T04:41:07;33.83;;;15.05;;
6852;SDS011;3465;42.144;24.722;2024-03-02T04:43:32;36.72;;;15.02;;
6852;SDS011;3465;42.144;24.722;2024-03-02T04:45:59;42.67;;;16.42;;
6852;SDS011;3465;42.144;24.722;2024-03-02T04:48:25;43.25;;;16.10;;
6852;SDS011;3465;42.144;24.722;2024-03-02T04:50:50;41.58;;;16.90;;
6852;SDS011;3465;42.144;24.722;2024-03-02T04:53:16;43.20;;;16.45;;
6852;SDS011;3465;42.144;24.722;2024-03-02T04:55:42;47.15;;;18.13;;
6852;SDS011;3465;42.144;24.722;2024-03-02T04:58:08;46.30;;;18.33;;
6852;SDS011;3465;42.144;24.722;2024-03-02T05:00:33;39.38;;;16.15;;
6852;SDS011;3465;42.144;24.722;2024-03-02T05:02:59;36.20;;;15.05;;
6852;SDS011;3465;42.144;24.722;2024-03-02T05:05:25;37.35;;;14.73;;
6852;SDS011;3465;42.144;24.722;2024-03-02T05:07:51;38.95;;;14.32;;
6852;SDS011;3465;42.144;24.722;2024-03-02T05:10:17;42.05;;;14.00;;
6852;SDS011;3465;42.144;24.722;2024-03-02T05:12:42;39.95;;;16.27;;
6852;SDS011;3465;42.144;24.722;2024-03-02T05:15:08;40.88;;;15.52;;
6852;SDS011;3465;42.144;24.722;2024-03-02T05:17:38;40.90;;;15.90;;
6852;SDS011;3465;42.144;24.722;2024-03-02T05:20:10;35.83;;;14.25;;
6852;SDS011;3465;42.144;24.722;2024-03-02T05:22:36;41.72;;;15.70;;
6852;SDS011;3465;42.144;24.722;2024-03-02T05:25:03;41.88;;;16.17;;
6852;SDS011;3465;42.144;24.722;2024-03-02T05:29:54;39.33;;;15.15;;
6852;SDS011;3465;42.144;24.722;2024-03-02T05:32:20;40.08;;;16.15;;
6852;SDS011;3465;42.144;24.722;2024-03-02T05:34:45;39.30;;;16.23;;
6852;SDS011;3465;42.144;24.722;2024-03-02T05:37:10;40.08;;;16.42;;
6852;SDS011;3465;42.144;24.722;2024-03-02T05:39:36;37.55;;;14.77;;
6852;SDS011;3465;42.144;24.722;2024-03-02T05:42:02;38.50;;;14.85;;
6852;SDS011;3465;42.144;24.722;2024-03-02T05:44:28;22.67;;;10.73;;
6852;SDS011;3465;42.144;24.722;2024-03-02T05:46:54;31.00;;;13.50;;
6852;SDS011;3465;42.144;24.722;2024-03-02T05:49:19;31.15;;;13.50;;
6852;SDS011;3465;42.144;24.722;2024-03-02T05:51:45;29.08;;;13.45;;
6852;SDS011;3465;42.144;24.722;2024-03-02T05:54:10;29.73;;;13.25;;
6852;SDS011;3465;42.144;24.722;2024-03-02T05:56:36;35.85;;;14.73;;
6852;SDS011;3465;42.144;24.722;2024-03-02T05:59:01;30.90;;;14.15;;
6852;SDS011;3465;42.144;24.722;2024-03-02T06:01:40;33.08;;;13.95;;
6852;SDS011;3465;42.144;24.722;2024-03-02T06:04:08;30.77;;;12.80;;
6852;SDS011;3465;42.144;24.722;2024-03-02T06:06:33;34.85;;;13.77;;
6852;SDS011;3465;42.144;24.722;2024-03-02T06:08:59;28.75;;;12.93;;
6852;SDS011;3465;42.144;24.722;2024-03-02T06:11:26;31.17;;;13.60;;
6852;SDS011;3465;42.144;24.722;2024-03-02T06:13:51;27.35;;;12.95;;
6852;SDS011;3465;42.144;24.722;2024-03-02T06:16:17;31.65;;;12.50;;
6852;SDS011;3465;42.144;24.722;2024-03-02T06:18:42;29.70;;;12.85;;
6852;SDS011;3465;42.144;24.722;2024-03-02T06:21:07;29.10;;;11.20;;
6852;SDS011;3465;42.144;24.722;2024-03-02T06:23:33;29.58;;;12.52;;
6852;SDS011;3465;42.144;24.722;2024-03-02T06:26:00;25.08;;;11.65;;
6852;SDS011;3465;42.144;24.722;2024-03-02T06:28:25;25.75;;;10.82;;
6852;SDS011;3465;42.144;24.722;2024-03-02T06:30:51;25.63;;;12.93;;
6852;SDS011;3465;42.144;24.722;2024-03-02T06:33:17;24.30;;;11.55;;
6852;SDS011;3465;42.144;24.722;2024-03-02T06:35:42;21.38;;;10.70;;
6852;SDS011;3465;42.144;24.722;2024-03-02T06:38:08;23.33;;;10.80;;
6852;SDS011;3465;42.144;24.722;2024-03-02T06:40:33;21.88;;;10.68;;
6852;SDS011;3465;42.144;24.722;2024-03-02T06:42:59;25.13;;;11.18;;
6852;SDS011;3465;42.144;24.722;2024-03-02T06:45:24;22.38;;;10.48;;
6852;SDS011;3465;42.144;24.722;2024-03-02T06:47:50;21.40;;;10.27;;
6852;SDS011;3465;42.144;24.722;2024-03-02T06:50:15;21.67;;;10.23;;
6852;SDS011;3465;42.144;24.722;2024-03-02T06:52:41;19.88;;;10.30;;
6852;SDS011;3465;42.144;24.722;2024-03-02T06:55:07;21.88;;;10.30;;
6852;SDS011;3465;42.144;24.722;2024-03-02T06:57:32;22.02;;;10.05;;
6852;SDS011;3465;42.144;24.722;2024-03-02T06:59:58;20.38;;;9.20;;
6852;SDS011;3465;42.144;24.722;2024-03-02T07:02:26;27.25;;;11.93;;
6852;SDS011;3465;42.144;24.722;2024-03-02T07:04:55;23.40;;;11.10;;
6852;SDS011;3465;42.144;24.722;2024-03-02T07:07:20;19.40;;;10.15;;
6852;SDS011;3465;42.144;24.722;2024-03-02T07:09:46;19.10;;;9.75;;
6852;SDS011;3465;42.144;24.722;2024-03-02T07:12:12;21.92;;;10.85;;
6852;SDS011;3465;42.144;24.722;2024-03-02T07:14:38;26.55;;;12.27;;
6852;SDS011;3465;42.144;24.722;2024-03-02T07:17:42;18.95;;;8.77;;
6852;SDS011;3465;42.144;24.722;2024-03-02T07:20:08;23.23;;;10.80;;
6852;SDS011;3465;42.144;24.722;2024-03-02T07:22:34;18.67;;;9.32;;
6852;SDS011;3465;42.144;24.722;2024-03-02T07:24:59;19.27;;;9.57;;
6852;SDS011;3465;42.144;24.722;2024-03-02T07:27:25;23.38;;;10.68;;
6852;SDS011;3465;42.144;24.722;2024-03-02T07:29:50;23.23;;;10.18;;
6852;SDS011;3465;42.144;24.722;2024-03-02T07:32:15;20.45;;;9.77;;
6852;SDS011;3465;42.144;24.722;2024-03-02T07:34:41;22.58;;;10.95;;
6852;SDS011;3465;42.144;24.722;2024-03-02T07:37:06;23.60;;;10.77;;
6852;SDS011;3465;42.144;24.722;2024-03-02T07:39:32;27.13;;;11.65;;
6852;SDS011;3465;42.144;24.722;2024-03-02T07:41:58;21.90;;;10.35;;
6852;SDS011;3465;42.144;24.722;2024-03-02T07:44:24;25.20;;;12.35;;
6852;SDS011;3465;42.144;24.722;2024-03-02T07:46:50;25.75;;;12.60;;
6852;SDS011;3465;42.144;24.722;2024-03-02T07:49:15;26.92;;;11.68;;
6852;SDS011;3465;42.144;24.722;2024-03-02T07:51:41;23.60;;;11.32;;
6852;SDS011;3465;42.144;24.722;2024-03-02T07:54:07;53.13;;;19.92;;
6852;SDS011;3465;42.144;24.722;2024-03-02T07:56:33;27.77;;;12.85;;
6852;SDS011;3465;42.144;24.722;2024-03-02T07:58:59;24.42;;;12.98;;
6852;SDS011;3465;42.144;24.722;2024-03-02T08:01:29;26.13;;;13.63;;
6852;SDS011;3465;42.144;24.722;2024-03-02T08:03:56;24.85;;;14.35;;
6852;SDS011;3465;42.144;24.722;2024-03-02T08:06:23;26.50;;;14.38;;
6852;SDS011;3465;42.144;24.722;2024-03-02T08:08:52;23.48;;;12.60;;
6852;SDS011;3465;42.144;24.722;2024-03-02T08:11:24;21.67;;;11.75;;
6852;SDS011;3465;42.144;24.722;2024-03-02T08:13:50;21.77;;;10.77;;
6852;SDS011;3465;42.144;24.722;2024-03-02T08:16:16;23.98;;;12.90;;
6852;SDS011;3465;42.144;24.722;2024-03-02T08:18:46;20.48;;;10.50;;
6852;SDS011;3465;42.144;24.722;2024-03-02T08:21:12;26.92;;;13.95;;
6852;SDS011;3465;42.144;24.722;2024-03-02T08:23:39;30.63;;;15.18;;
6852;SDS011;3465;42.144;24.722;2024-03-02T08:26:07;17.98;;;9.65;;
6852;SDS011;3465;42.144;24.722;2024-03-02T08:28:32;22.38;;;10.63;;
6852;SDS011;3465;42.144;24.722;2024-03-02T08:30:58;19.23;;;10.35;;
6852;SDS011;3465;42.144;24.722;2024-03-02T08:33:24;25.52;;;12.02;;
6852;SDS011;3465;42.144;24.722;2024-03-02T08:35:49;21.05;;;11.70;;
6852;SDS011;3465;42.144;24.722;2024-03-02T08:38:15;22.95;;;10.95;;
6852;SDS011;3465;42.144;24.722;2024-03-02T08:40:41;22.60;;;11.70;;
6852;SDS011;3465;42.144;24.722;2024-03-02T08:43:06;17.88;;;9.68;;
6852;SDS011;3465;42.144;24.722;2024-03-02T08:45:32;25.25;;;10.95;;
6852;SDS011;3465;42.144;24.722;2024-03-02T08:47:59;30.30;;;16.80;;
6852;SDS011;3465;42.144;24.722;2024-03-02T08:50:25;27.70;;;14.85;;
6852;SDS011;3465;42.144;24.722;2024-03-02T08:52:50;29.77;;;17.45;;
6852;SDS011;3465;42.144;24.722;2024-03-02T08:55:16;34.47;;;19.75;;
6852;SDS011;3465;42.144;24.722;2024-03-02T08:57:41;22.67;;;11.35;;
6852;SDS011;3465;42.144;24.722;2024-03-02T09:00:07;21.27;;;11.27;;
6852;SDS011;3465;42.144;24.722;2024-03-02T09:04:59;27.02;;;12.60;;
6852;SDS011;3465;42.144;24.722;2024-03-02T09:07:24;28.77;;;13.77;;
6852;SDS011;3465;42.144;24.722;2024-03-02T09:09:50;30.30;;;15.07;;
6852;SDS011;3465;42.144;24.722;2024-03-02T09:12:15;28.35;;;12.70;;
6852;SDS011;3465;42.144;24.722;2024-03-02T09:14:41;27.85;;;12.15;;
6852;SDS011;3465;42.144;24.722;2024-03-02T09:17:07;35.78;;;15.77;;
6852;SDS011;3465;42.144;24.722;2024-03-02T09:19:33;32.00;;;12.60;;
6852;SDS011;3465;42.144;24.722;2024-03-02T09:21:58;38.60;;;16.60;;
6852;SDS011;3465;42.144;24.722;2024-03-02T09:24:24;33.50;;;13.80;;
6852;SDS011;3465;42.144;24.722;2024-03-02T09:26:50;26.95;;;13.40;;
6852;SDS011;3465;42.144;24.722;2024-03-02T09:29:15;25.25;;;11.52;;
6852;SDS011;3465;42.144;24.722;2024-03-02T09:31:41;28.83;;;11.25;;
6852;SDS011;3465;42.144;24.722;2024-03-02T09:34:07;29.33;;;11.35;;
6852;SDS011;3465;42.144;24.722;2024-03-02T09:36:32;30.77;;;12.93;;
6852;SDS011;3465;42.144;24.722;2024-03-02T09:38:58;24.70;;;11.50;;
6852;SDS011;3465;42.144;24.722;2024-03-02T09:41:23;25.77;;;11.50;;
6852;SDS011;3465;42.144;24.722;2024-03-02T09:43:50;23.48;;;11.52;;
6852;SDS011;3465;42.144;24.722;2024-03-02T09:46:15;22.10;;;10.68;;
6852;SDS011;3465;42.144;24.722;2024-03-02T09:48:41;21.33;;;10.52;;
6852;SDS011;3465;42.144;24.722;2024-03-02T09:51:06;23.77;;;11.63;;
6852;SDS011;3465;42.144;24.722;2024-03-02T09:53:34;26.40;;;11.40;;
6852;SDS011;3465;42.144;24.722;2024-03-02T09:55:59;27.92;;;10.88;;
6852;SDS011;3465;42.144;24.722;2024-03-02T09:58:26;27.65;;;12.15;;
6852;SDS011;3465;42.144;24.722;2024-03-02T10:00:52;23.10;;;10.20;;
6852;SDS011;3465;42.144;24.722;2024-03-02T10:03:20;22.48;;;10.45;;
6852;SDS011;3465;42.144;24.722;2024-03-02T10:05:49;23.30;;;12.18;;
6852;SDS011;3465;42.144;24.722;2024-03-02T10:08:15;22.60;;;11.32;;
6852;SDS011;3465;42.144;24.722;2024-03-02T10:10:41;29.10;;;12.57;;
6852;SDS011;3465;42.144;24.722;2024-03-02T10:13:10;30.10;;;13.02;;
6852;SDS011;3465;42.144;24.722;2024-03-02T10:15:37;25.40;;;12.68;;
6852;SDS011;3465;42.144;24.722;2024-03-02T10:18:05;26.23;;;12.30;;
6852;SDS011;3465;42.144;24.722;2024-03-02T10:20:34;27.73;;;12.45;;
6852;SDS011;3465;42.144;24.722;2024-03-02T10:25:40;28.83;;;13.00;;
6852;SDS011;3465;42.144;24.722;2024-03-02T10:30:32;28.27;;;12.00;;
6852;SDS011;3465;42.144;24.722;2024-03-02T10:33:03;27.10;;;12.13;;
6852;SDS011;3465;42.144;24.722;2024-03-02T10:35:31;20.00;;;11.05;;
6852;SDS011;3465;42.144;24.722;2024-03-02T10:38:00;27.05;;;12.50;;
6852;SDS011;3465;42.144;24.722;2024-03-02T10:40:26;29.42;;;12.85;;
6852;SDS011;3465;42.144;24.722;2024-03-02T10:42:52;26.52;;;13.32;;
6852;SDS011;3465;42.144;24.722;2024-03-02T10:45:19;24.48;;;12.50;;
6852;SDS011;3465;42.144;24.722;2024-03-02T10:47:47;24.48;;;13.30;;
6852;SDS011;3465;42.144;24.722;2024-03-02T10:50:13;20.65;;;12.57;;
6852;SDS011;3465;42.144;24.722;2024-03-02T10:52:39;25.80;;;12.63;;
6852;SDS011;3465;42.144;24.722;2024-03-02T10:55:08;21.98;;;12.23;;
6852;SDS011;3465;42.144;24.722;2024-03-02T10:57:50;20.27;;;11.43;;
6852;SDS011;3465;42.144;24.722;2024-03-02T11:00:19;19.20;;;10.45;;
6852;SDS011;3465;42.144;24.722;2024-03-02T11:02:50;24.02;;;11.73;;
6852;SDS011;3465;42.144;24.722;2024-03-02T11:05:26;24.85;;;12.82;;
6852;SDS011;3465;42.144;24.722;2024-03-02T11:07:56;23.15;;;12.52;;
6852;SDS011;3465;42.144;24.722;2024-03-02T11:10:27;24.58;;;12.80;;
6852;SDS011;3465;42.144;24.722;2024-03-02T11:13:09;20.85;;;12.60;;
6852;SDS011;3465;42.144;24.722;2024-03-02T11:15:37;25.40;;;14.35;;
6852;SDS011;3465;42.144;24.722;2024-03-02T11:18:05;25.63;;;12.57;;
6852;SDS011;3465;42.144;24.722;2024-03-02T11:20:42;28.95;;;16.42;;
6852;SDS011;3465;42.144;24.722;2024-03-02T11:23:08;28.70;;;17.00;;
6852;SDS011;3465;42.144;24.722;2024-03-02T11:25:34;26.35;;;14.05;;
6852;SDS011;3465;42.144;24.722;2024-03-02T11:28:09;29.95;;;15.82;;
6852;SDS011;3465;42.144;24.722;2024-03-02T11:33:04;31.60;;;13.63;;
6852;SDS011;3465;42.144;24.722;2024-03-02T11:35:33;30.60;;;16.08;;
6852;SDS011;3465;42.144;24.722;2024-03-02T11:38:03;24.48;;;13.70;;
6852;SDS011;3465;42.144;24.722;2024-03-02T11:40:29;32.50;;;14.38;;
6852;SDS011;3465;42.144;24.722;2024-03-02T11:43:01;28.50;;;13.38;;
6852;SDS011;3465;42.144;24.722;2024-03-02T11:45:27;21.63;;;13.20;;
6852;SDS011;3465;42.144;24.722;2024-03-02T11:53:05;25.17;;;14.45;;
6852;SDS011;3465;42.144;24.722;2024-03-02T11:55:34;26.15;;;12.88;;
6852;SDS011;3465;42.144;24.722;2024-03-02T11:58:01;20.98;;;12.40;;
6852;SDS011;3465;42.144;24.722;2024-03-02T12:00:28;23.02;;;14.02;;
6852;SDS011;3465;42.144;24.722;2024-03-02T12:03:03;20.85;;;12.73;;
6852;SDS011;3465;42.144;24.722;2024-03-02T12:05:30;22.50;;;12.38;;
6852;SDS011;3465;42.144;24.722;2024-03-02T12:07:57;21.95;;;12.98;;
6852;SDS011;3465;42.144;24.722;2024-03-02T12:10:27;23.05;;;13.45;;
6852;SDS011;3465;42.144;24.722;2024-03-02T12:12:59;18.83;;;10.05;;
6852;SDS011;3465;42.144;24.722;2024-03-02T12:15:29;24.17;;;13.40;;
6852;SDS011;3465;42.144;24.722;2024-03-02T12:17:56;25.23;;;13.48;;
6852;SDS011;3465;42.144;24.722;2024-03-02T12:20:24;22.52;;;13.80;;
6852;SDS011;3465;42.144;24.722;2024-03-02T12:22:51;23.10;;;12.82;;
6852;SDS011;3465;42.144;24.722;2024-03-02T12:25:17;21.77;;;13.75;;
6852;SDS011;3465;42.144;24.722;2024-03-02T12:27:44;25.42;;;15.27;;
6852;SDS011;3465;42.144;24.722;2024-03-02T12:30:11;23.98;;;14.20;;
6852;SDS011;3465;42.144;24.722;2024-03-02T12:32:39;28.45;;;14.13;;
6852;SDS011;3465;42.144;24.722;2024-03-02T12:35:05;24.95;;;14.73;;
6852;SDS011;3465;42.144;24.722;2024-03-02T12:37:31;24.35;;;13.38;;
6852;SDS011;3465;42.144;24.722;2024-03-02T12:39:57;24.95;;;12.70;;
6852;SDS011;3465;42.144;24.722;2024-03-02T12:42:23;25.73;;;14.70;;
6852;SDS011;3465;42.144;24.722;2024-03-02T12:44:51;23.38;;;13.13;;
6852;SDS011;3465;42.144;24.722;2024-03-02T12:47:20;22.25;;;13.07;;
6852;SDS011;3465;42.144;24.722;2024-03-02T12:49:46;24.05;;;13.32;;
6852;SDS011;3465;42.144;24.722;2024-03-02T12:52:12;21.77;;;12.15;;
6852;SDS011;3465;42.144;24.722;2024-03-02T12:54:38;26.27;;;14.43;;
6852;SDS011;3465;42.144;24.722;2024-03-02T12:57:04;28.48;;;15.95;;
6852;SDS011;3465;42.144;24.722;2024-03-02T12:59:29;27.17;;;15.52;;
6852;SDS011;3465;42.144;24.722;2024-03-02T13:01:58;30.15;;;16.13;;
6852;SDS011;3465;42.144;24.722;2024-03-02T13:06:51;22.05;;;13.48;;
6852;SDS011;3465;42.144;24.722;2024-03-02T13:09:17;23.02;;;13.35;;
6852;SDS011;3465;42.144;24.722;2024-03-02T13:11:43;20.15;;;12.95;;
6852;SDS011;3465;42.144;24.722;2024-03-02T13:14:10;23.65;;;13.80;;
6852;SDS011;3465;42.144;24.722;2024-03-02T13:16:39;24.50;;;15.80;;
6852;SDS011;3465;42.144;24.722;2024-03-02T13:19:08;30.33;;;17.20;;
6852;SDS011;3465;42.144;24.722;2024-03-02T13:21:34;32.15;;;16.98;;
6852;SDS011;3465;42.144;24.722;2024-03-02T13:23:59;28.33;;;15.85;;
6852;SDS011;3465;42.144;24.722;2024-03-02T13:28:51;22.85;;;14.20;;
6852;SDS011;3465;42.144;24.722;2024-03-02T13:31:17;23.95;;;14.90;;
6852;SDS011;3465;42.144;24.722;2024-03-02T13:33:42;24.38;;;14.07;;
6852;SDS011;3465;42.144;24.722;2024-03-02T13:36:08;26.45;;;14.75;;
6852;SDS011;3465;42.144;24.722;2024-03-02T13:38:33;24.60;;;15.45;;
6852;SDS011;3465;42.144;24.722;2024-03-02T13:40:58;24.70;;;13.88;;
6852;SDS011;3465;42.144;24.722;2024-03-02T13:43:26;27.48;;;15.68;;
6852;SDS011;3465;42.144;24.722;2024-03-02T13:45:52;25.58;;;14.38;;
6852;SDS011;3465;42.144;24.722;2024-03-02T13:48:18;22.98;;;14.63;;
6852;SDS011;3465;42.144;24.722;2024-03-02T13:50:44;20.35;;;13.57;;
6852;SDS011;3465;42.144;24.722;2024-03-02T13:53:11;19.02;;;11.50;;
6852;SDS011;3465;42.144;24.722;2024-03-02T13:55:37;17.65;;;10.07;;
6852;SDS011;3465;42.144;24.722;2024-03-02T13:58:03;18.88;;;11.70;;
6852;SDS011;3465;42.144;24.722;2024-03-02T14:00:29;15.15;;;9.38;;
6852;SDS011;3465;42.144;24.722;2024-03-02T14:02:55;15.73;;;9.88;;
6852;SDS011;3465;42.144;24.722;2024-03-02T14:05:20;16.08;;;9.68;;
6852;SDS011;3465;42.144;24.722;2024-03-02T14:07:46;14.07;;;9.57;;
6852;SDS011;3465;42.144;24.722;2024-03-02T14:10:12;16.40;;;10.10;;
6852;SDS011;3465;42.144;24.722;2024-03-02T14:12:38;16.23;;;10.50;;
6852;SDS011;3465;42.144;24.722;2024-03-02T14:15:04;15.27;;;10.45;;
6852;SDS011;3465;42.144;24.722;2024-03-02T14:17:30;17.02;;;10.02;;
6852;SDS011;3465;42.144;24.722;2024-03-02T14:19:58;14.75;;;9.73;;
6852;SDS011;3465;42.144;24.722;2024-03-02T14:22:24;14.88;;;10.00;;
6852;SDS011;3465;42.144;24.722;2024-03-02T14:27:15;16.23;;;9.45;;
6852;SDS011;3465;42.144;24.722;2024-03-02T14:29:44;18.05;;;11.05;;
6852;SDS011;3465;42.144;24.722;2024-03-02T14:32:10;19.80;;;12.23;;
6852;SDS011;3465;42.144;24.722;2024-03-02T14:34:35;20.58;;;12.13;;
6852;SDS011;3465;42.144;24.722;2024-03-02T14:37:01;19.15;;;11.43;;
6852;SDS011;3465;42.144;24.722;2024-03-02T14:39:27;20.23;;;11.38;;
6852;SDS011;3465;42.144;24.722;2024-03-02T14:41:53;18.42;;;11.02;;
6852;SDS011;3465;42.144;24.722;2024-03-02T14:46:48;16.23;;;9.70;;
6852;SDS011;3465;42.144;24.722;2024-03-02T14:49:14;15.35;;;9.38;;
6852;SDS011;3465;42.144;24.722;2024-03-02T14:51:41;17.50;;;9.10;;
6852;SDS011;3465;42.144;24.722;2024-03-02T14:54:06;17.17;;;9.05;;
6852;SDS011;3465;42.144;24.722;2024-03-02T14:56:32;16.33;;;9.27;;
6852;SDS011;3465;42.144;24.722;2024-03-02T14:58:57;15.93;;;10.55;;
6852;SDS011;3465;42.144;24.722;2024-03-02T15:01:23;14.93;;;8.68;;